sensor_id;sensor_type;location;lat;lon;timestamp;pressure;altitude;pressure_sealevel;temperature;humidity
60170;BME280;46042;49.444;6.862;2023-03-03T00:00:24;98937.13;;;-0.90;96.49
60170;BME280;46042;49.444;6.862;2023-03-03T00:02:50;98947.59;;;-0.97;94.74
60170;BME280;46042;49.444;6.862;2023-03-03T00:05:17;98954.47;;;-0.96;95.99
60170;BME280;46042;49.444;6.862;2023-03-03T00:07:44;98951.00;;;-0.97;96.91
60170;BME280;46042;49.444;6.862;2023-03-03T00:10:12;98944.22;;;-1.03;95.76
60170;BME280;46042;49.444;6.862;2023-03-03T00:12:48;98948.56;;;-1.06;96.35
60170;BME280;46042;49.444;6.862;2023-03-03T00:15:18;98953.72;;;-1.06;96.38
60170;BME280;46042;49.444;6.862;2023-03-03T00:17:46;98950.34;;;-1.11;96.55
60170;BME280;46042;49.444;6.862;2023-03-03T00:20:29;98952.13;;;-1.17;95.70
60170;BME280;46042;49.444;6.862;2023-03-03T00:23:30;98957.31;;;-1.17;96.38
60170;BME280;46042;49.444;6.862;2023-03-03T00:25:58;98959.09;;;-1.22;96.22
60170;BME280;46042;49.444;6.862;2023-03-03T00:28:31;98958.22;;;-1.22;96.50
60170;BME280;46042;49.444;6.862;2023-03-03T00:31:17;98952.28;;;-1.27;97.15
60170;BME280;46042;49.444;6.862;2023-03-03T00:33:50;98957.47;;;-1.29;97.28
60170;BME280;46042;49.444;6.862;2023-03-03T00:36:35;98955.00;;;-1.40;96.74
60170;BME280;46042;49.444;6.862;2023-03-03T00:39:20;98958.47;;;-1.39;96.97
60170;BME280;46042;49.444;6.862;2023-03-03T00:41:47;98955.00;;;-1.40;98.46
60170;BME280;46042;49.444;6.862;2023-03-03T00:46:51;98955.91;;;-1.42;97.03
60170;BME280;46042;49.444;6.862;2023-03-03T00:49:25;98955.91;;;-1.42;97.06
60170;BME280;46042;49.444;6.862;2023-03-03T00:51:53;98953.34;;;-1.44;96.85
60170;BME280;46042;49.444;6.862;2023-03-03T00:54:19;98960.25;;;-1.45;97.32
60170;BME280;46042;49.444;6.862;2023-03-03T00:56:46;98959.38;;;-1.47;97.22
60170;BME280;46042;49.444;6.862;2023-03-03T00:59:12;98956.81;;;-1.47;96.96
60170;BME280;46042;49.444;6.862;2023-03-03T01:01:39;98955.97;;;-1.47;96.91
60170;BME280;46042;49.444;6.862;2023-03-03T01:04:06;98956.84;;;-1.50;97.23
60170;BME280;46042;49.444;6.862;2023-03-03T01:06:32;98956.94;;;-1.56;96.79
60170;BME280;46042;49.444;6.862;2023-03-03T01:08:59;98964.69;;;-1.58;96.87
60170;BME280;46042;49.444;6.862;2023-03-03T01:11:26;98961.25;;;-1.58;96.61
60170;BME280;46042;49.444;6.862;2023-03-03T01:13:55;98963.84;;;-1.58;97.07
60170;BME280;46042;49.444;6.862;2023-03-03T01:16:22;98960.44;;;-1.62;97.25
60170;BME280;46042;49.444;6.862;2023-03-03T01:18:48;98960.50;;;-1.68;97.35
60170;BME280;46042;49.444;6.862;2023-03-03T01:21:15;98963.13;;;-1.71;97.01
60170;BME280;46042;49.444;6.862;2023-03-03T01:23:42;98957.97;;;-1.73;97.33
60170;BME280;46042;49.444;6.862;2023-03-03T01:26:08;98963.19;;;-1.76;97.54
60170;BME280;46042;49.444;6.862;2023-03-03T01:28:35;98960.59;;;-1.77;96.87
60170;BME280;46042;49.444;6.862;2023-03-03T01:31:03;98964.94;;;-1.79;96.25
60170;BME280;46042;49.444;6.862;2023-03-03T01:33:31;98965.75;;;-1.77;96.96
60170;BME280;46042;49.444;6.862;2023-03-03T01:35:59;98965.75;;;-1.77;97.15
60170;BME280;46042;49.444;6.862;2023-03-03T01:38:26;98957.19;;;-1.79;97.22
60170;BME280;46042;49.444;6.862;2023-03-03T01:40:54;98958.06;;;-1.82;96.55
60170;BME280;46042;49.444;6.862;2023-03-03T01:43:21;98964.16;;;-1.88;98.36
60170;BME280;46042;49.444;6.862;2023-03-03T01:53:32;98958.22;;;-1.97;97.42
60170;BME280;46042;49.444;6.862;2023-03-03T01:56:01;98959.09;;;-1.97;98.17
60170;BME280;46042;49.444;6.862;2023-03-03T01:58:36;98952.22;;;-1.98;98.71
60170;BME280;46042;49.444;6.862;2023-03-03T02:01:08;98942.75;;;-2.01;98.61
60170;BME280;46042;49.444;6.862;2023-03-03T02:03:38;98932.50;;;-2.08;98.74
60170;BME280;46042;49.444;6.862;2023-03-03T02:06:12;98940.25;;;-2.08;98.14
60170;BME280;46042;49.444;6.862;2023-03-03T02:09:05;98942.88;;;-2.11;98.79
60170;BME280;46042;49.444;6.862;2023-03-03T02:11:36;98943.72;;;-2.14;98.38
60170;BME280;46042;49.444;6.862;2023-03-03T02:14:03;98936.03;;;-2.16;97.99
60170;BME280;46042;49.444;6.862;2023-03-03T02:16:30;98938.59;;;-2.16;97.64
60170;BME280;46042;49.444;6.862;2023-03-03T02:18:57;98931.78;;;-2.20;97.57
60170;BME280;46042;49.444;6.862;2023-03-03T02:21:24;98938.69;;;-2.22;98.57
60170;BME280;46042;49.444;6.862;2023-03-03T02:24:26;98936.97;;;-2.24;98.10
60170;BME280;46042;49.444;6.862;2023-03-03T02:26:56;98936.97;;;-2.24;97.56
60170;BME280;46042;49.444;6.862;2023-03-03T02:29:23;98934.41;;;-2.27;97.85
60170;BME280;46042;49.444;6.862;2023-03-03T02:31:49;98931.88;;;-2.31;98.69
60170;BME280;46042;49.444;6.862;2023-03-03T02:34:16;98937.03;;;-2.31;98.06
60170;BME280;46042;49.444;6.862;2023-03-03T02:36:43;98931.88;;;-2.34;98.36
60170;BME280;46042;49.444;6.862;2023-03-03T02:39:13;98933.63;;;-2.34;98.11
60170;BME280;46042;49.444;6.862;2023-03-03T02:44:22;98937.09;;;-2.38;98.15
60170;BME280;46042;49.444;6.862;2023-03-03T02:46:51;98941.38;;;-2.37;97.68
60170;BME280;46042;49.444;6.862;2023-03-03T02:49:21;98941.38;;;-2.37;97.66
60170;BME280;46042;49.444;6.862;2023-03-03T02:51:48;98936.22;;;-2.40;96.87
60170;BME280;46042;49.444;6.862;2023-03-03T02:54:17;98950.03;;;-2.43;96.76
60170;BME280;46042;49.444;6.862;2023-03-03T02:56:44;98950.03;;;-2.43;96.87
60170;BME280;46042;49.444;6.862;2023-03-03T02:59:11;98949.19;;;-2.47;97.21
60170;BME280;46042;49.444;6.862;2023-03-03T03:01:39;98938.88;;;-2.47;96.78
60170;BME280;46042;49.444;6.862;2023-03-03T03:04:17;98939.75;;;-2.46;97.37
60170;BME280;46042;49.444;6.862;2023-03-03T03:06:44;98942.31;;;-2.48;97.25
60170;BME280;46042;49.444;6.862;2023-03-03T03:09:12;98947.47;;;-2.48;96.69
60170;BME280;46042;49.444;6.862;2023-03-03T03:11:39;98940.66;;;-2.52;96.57
60170;BME280;46042;49.444;6.862;2023-03-03T03:14:08;98934.59;;;-2.49;97.66
60170;BME280;46042;49.444;6.862;2023-03-03T03:16:35;98932.91;;;-2.52;97.51
60170;BME280;46042;49.444;6.862;2023-03-03T03:19:03;98930.31;;;-2.52;97.16
60170;BME280;46042;49.444;6.862;2023-03-03T03:21:30;98932.06;;;-2.54;97.30
60170;BME280;46042;49.444;6.862;2023-03-03T03:23:57;98931.22;;;-2.56;97.04
60170;BME280;46042;49.444;6.862;2023-03-03T03:26:24;98938.97;;;-2.56;97.17
60170;BME280;46042;49.444;6.862;2023-03-03T03:28:51;98947.53;;;-2.57;96.17
60170;BME280;46042;49.444;6.862;2023-03-03T03:31:19;98936.38;;;-2.59;96.61
60170;BME280;46042;49.444;6.862;2023-03-03T03:33:46;98936.41;;;-2.62;96.98
60170;BME280;46042;49.444;6.862;2023-03-03T03:36:15;98937.28;;;-2.63;97.43
60170;BME280;46042;49.444;6.862;2023-03-03T03:38:42;98939.03;;;-2.65;96.55
60170;BME280;46042;49.444;6.862;2023-03-03T03:41:10;98937.38;;;-2.73;96.79
60170;BME280;46042;49.444;6.862;2023-03-03T03:43:37;98940.81;;;-2.75;98.01
60170;BME280;46042;49.444;6.862;2023-03-03T03:46:04;98942.59;;;-2.85;99.55
60170;BME280;46042;49.444;6.862;2023-03-03T03:48:30;98942.53;;;-2.79;99.10
60170;BME280;46042;49.444;6.862;2023-03-03T03:50:57;98937.38;;;-2.77;98.50
60170;BME280;46042;49.444;6.862;2023-03-03T03:53:24;98952.84;;;-2.76;97.85
60170;BME280;46042;49.444;6.862;2023-03-03T03:55:50;98947.69;;;-2.79;98.61
60170;BME280;46042;49.444;6.862;2023-03-03T03:58:18;98953.75;;;-2.81;97.98
60170;BME280;46042;49.444;6.862;2023-03-03T04:00:45;98952.88;;;-2.82;97.64
60170;BME280;46042;49.444;6.862;2023-03-03T04:03:13;98949.50;;;-2.90;97.92
60170;BME280;46042;49.444;6.862;2023-03-03T04:05:40;98946.94;;;-2.92;97.34
60170;BME280;46042;49.444;6.862;2023-03-03T04:08:07;98945.19;;;-2.91;98.68
60170;BME280;46042;49.444;6.862;2023-03-03T04:10:34;98951.22;;;-2.92;98.37
60170;BME280;46042;49.444;6.862;2023-03-03T04:13:00;98954.66;;;-2.90;98.09
60170;BME280;46042;49.444;6.862;2023-03-03T04:15:27;98947.78;;;-2.94;98.61
60170;BME280;46042;49.444;6.862;2023-03-03T04:17:54;98950.44;;;-2.99;98.86
60170;BME280;46042;49.444;6.862;2023-03-03T04:20:20;98947.81;;;-2.97;98.63
60170;BME280;46042;49.444;6.862;2023-03-03T04:22:47;98949.56;;;-3.00;97.83
60170;BME280;46042;49.444;6.862;2023-03-03T04:25:15;98953.84;;;-3.00;97.70
60170;BME280;46042;49.444;6.862;2023-03-03T04:27:42;98952.13;;;-3.01;97.71
60170;BME280;46042;49.444;6.862;2023-03-03T04:30:10;98953.88;;;-3.03;98.20
60170;BME280;46042;49.444;6.862;2023-03-03T04:32:37;98954.75;;;-3.06;98.11
60170;BME280;46042;49.444;6.862;2023-03-03T04:35:04;98956.50;;;-3.08;97.85
60170;BME280;46042;49.444;6.862;2023-03-03T04:37:34;98964.19;;;-3.06;98.61
60170;BME280;46042;49.444;6.862;2023-03-03T04:40:03;98965.06;;;-3.12;98.48
60170;BME280;46042;49.444;6.862;2023-03-03T04:42:30;98962.50;;;-3.12;98.95
60170;BME280;46042;49.444;6.862;2023-03-03T04:44:57;98960.78;;;-3.13;98.26
60170;BME280;46042;49.444;6.862;2023-03-03T04:47:24;98959.09;;;-3.12;98.18
60170;BME280;46042;49.444;6.862;2023-03-03T04:49:51;98960.81;;;-3.15;98.65
60170;BME280;46042;49.444;6.862;2023-03-03T04:52:18;98964.25;;;-3.14;97.96
60170;BME280;46042;49.444;6.862;2023-03-03T04:54:44;98968.53;;;-3.13;98.62
60170;BME280;46042;49.444;6.862;2023-03-03T04:57:11;98973.69;;;-3.13;98.65
60170;BME280;46042;49.444;6.862;2023-03-03T04:59:38;98967.69;;;-3.15;97.22
60170;BME280;46042;49.444;6.862;2023-03-03T05:02:04;98967.69;;;-3.17;96.54
60170;BME280;46042;49.444;6.862;2023-03-03T05:04:31;98970.28;;;-3.21;96.66
60170;BME280;46042;49.444;6.862;2023-03-03T05:06:58;98982.31;;;-3.22;98.30
60170;BME280;46042;49.444;6.862;2023-03-03T05:09:24;98978.91;;;-3.32;99.18
60170;BME280;46042;49.444;6.862;2023-03-03T05:11:51;98981.50;;;-3.32;98.31
60170;BME280;46042;49.444;6.862;2023-03-03T05:14:17;98990.91;;;-3.28;98.66
60170;BME280;46042;49.444;6.862;2023-03-03T05:16:44;98985.78;;;-3.29;98.63
60170;BME280;46042;49.444;6.862;2023-03-03T05:19:11;98993.53;;;-3.29;99.09
60170;BME280;46042;49.444;6.862;2023-03-03T05:21:37;98987.53;;;-3.31;97.77
60170;BME280;46042;49.444;6.862;2023-03-03T05:24:10;98990.09;;;-3.36;98.09
60170;BME280;46042;49.444;6.862;2023-03-03T05:26:37;98985.00;;;-3.42;99.05
60170;BME280;46042;49.444;6.862;2023-03-03T05:29:04;98986.69;;;-3.41;98.62
60170;BME280;46042;49.444;6.862;2023-03-03T05:31:31;98990.97;;;-3.43;99.56
60170;BME280;46042;49.444;6.862;2023-03-03T05:33:57;98998.78;;;-3.59;100.00
60170;BME280;46042;49.444;6.862;2023-03-03T05:36:24;99001.31;;;-3.52;100.00
60170;BME280;46042;49.444;6.862;2023-03-03T05:38:51;98997.03;;;-3.50;100.00
60170;BME280;46042;49.444;6.862;2023-03-03T05:41:17;99000.44;;;-3.48;99.39
60170;BME280;46042;49.444;6.862;2023-03-03T05:43:44;98997.88;;;-3.48;99.51
60170;BME280;46042;49.444;6.862;2023-03-03T05:46:11;99008.16;;;-3.48;98.60
60170;BME280;46042;49.444;6.862;2023-03-03T05:48:38;99000.44;;;-3.53;98.74
60170;BME280;46042;49.444;6.862;2023-03-03T05:51:04;99004.72;;;-3.52;98.56
60170;BME280;46042;49.444;6.862;2023-03-03T05:53:31;99009.91;;;-3.53;99.09
60170;BME280;46042;49.444;6.862;2023-03-03T05:55:58;99010.75;;;-3.56;98.51
60170;BME280;46042;49.444;6.862;2023-03-03T05:58:24;99012.50;;;-3.57;98.61
60170;BME280;46042;49.444;6.862;2023-03-03T06:00:51;99009.91;;;-3.57;98.43
60170;BME280;46042;49.444;6.862;2023-03-03T06:03:18;99014.19;;;-3.57;99.16
60170;BME280;46042;49.444;6.862;2023-03-03T06:05:45;99018.50;;;-3.59;98.26
60170;BME280;46042;49.444;6.862;2023-03-03T06:08:12;99019.38;;;-3.69;98.87
60170;BME280;46042;49.444;6.862;2023-03-03T06:10:38;99018.50;;;-3.68;98.88
60170;BME280;46042;49.444;6.862;2023-03-03T06:13:05;99023.69;;;-3.70;99.37
60170;BME280;46042;49.444;6.862;2023-03-03T06:15:31;99027.09;;;-3.73;98.81
60170;BME280;46042;49.444;6.862;2023-03-03T06:17:58;99028.84;;;-3.73;98.32
60170;BME280;46042;49.444;6.862;2023-03-03T06:20:25;99036.56;;;-3.76;98.40
60170;BME280;46042;49.444;6.862;2023-03-03T06:22:51;99037.41;;;-3.80;98.74
60170;BME280;46042;49.444;6.862;2023-03-03T06:25:18;99040.00;;;-3.80;98.26
60170;BME280;46042;49.444;6.862;2023-03-03T06:27:45;99030.56;;;-3.77;98.85
60170;BME280;46042;49.444;6.862;2023-03-03T06:30:12;99032.25;;;-3.77;98.75
60170;BME280;46042;49.444;6.862;2023-03-03T06:32:39;99043.41;;;-3.74;98.66
60170;BME280;46042;49.444;6.862;2023-03-03T06:35:06;99046.00;;;-3.72;99.41
60170;BME280;46042;49.444;6.862;2023-03-03T06:37:32;99048.56;;;-3.71;99.17
60170;BME280;46042;49.444;6.862;2023-03-03T06:39:59;99043.44;;;-3.67;98.68
60170;BME280;46042;49.444;6.862;2023-03-03T06:42:26;99048.56;;;-3.64;99.72
60170;BME280;46042;49.444;6.862;2023-03-03T06:44:52;99056.25;;;-3.60;99.98
60170;BME280;46042;49.444;6.862;2023-03-03T06:47:19;99055.41;;;-3.60;98.58
60170;BME280;46042;49.444;6.862;2023-03-03T06:49:46;99056.25;;;-3.60;99.34
60170;BME280;46042;49.444;6.862;2023-03-03T06:52:31;99056.25;;;-3.60;99.19
60170;BME280;46042;49.444;6.862;2023-03-03T06:55:00;99063.97;;;-3.60;100.00
60170;BME280;46042;49.444;6.862;2023-03-03T06:57:30;99066.56;;;-3.60;99.93
60170;BME280;46042;49.444;6.862;2023-03-03T07:00:12;99073.44;;;-3.62;100.00
60170;BME280;46042;49.444;6.862;2023-03-03T07:02:41;99069.16;;;-3.57;100.00
60170;BME280;46042;49.444;6.862;2023-03-03T07:05:16;99076.00;;;-3.52;100.00
60170;BME280;46042;49.444;6.862;2023-03-03T07:07:43;99079.44;;;-3.49;99.26
60170;BME280;46042;49.444;6.862;2023-03-03T07:10:31;99072.56;;;-3.47;98.92
60170;BME280;46042;49.444;6.862;2023-03-03T07:13:15;99076.84;;;-3.44;98.87
60170;BME280;46042;49.444;6.862;2023-03-03T07:15:42;99095.75;;;-3.42;99.61
60170;BME280;46042;49.444;6.862;2023-03-03T07:21:38;99090.56;;;-3.30;100.00
60170;BME280;46042;49.444;6.862;2023-03-03T07:26:39;99085.38;;;-3.20;100.00
60170;BME280;46042;49.444;6.862;2023-03-03T07:29:24;99089.66;;;-3.21;100.00
60170;BME280;46042;49.444;6.862;2023-03-03T07:31:54;99096.53;;;-3.15;100.00
60170;BME280;46042;49.444;6.862;2023-03-03T07:34:47;99092.19;;;-2.99;100.00
60170;BME280;46042;49.444;6.862;2023-03-03T07:37:33;99107.41;;;-2.45;100.00
60170;BME280;46042;49.444;6.862;2023-03-03T07:40:20;99112.25;;;-1.95;99.22
60170;BME280;46042;49.444;6.862;2023-03-03T07:42:52;99115.75;;;-1.07;100.00
60170;BME280;46042;49.444;6.862;2023-03-03T07:45:34;99116.22;;;-0.05;99.51
60170;BME280;46042;49.444;6.862;2023-03-03T07:48:25;99111.84;;;0.52;90.06
60170;BME280;46042;49.444;6.862;2023-03-03T07:50:58;99111.63;;;1.10;89.29
60170;BME280;46042;49.444;6.862;2023-03-03T07:53:30;99111.44;;;1.62;85.11
60170;BME280;46042;49.444;6.862;2023-03-03T07:56:00;99110.09;;;2.58;82.50
60170;BME280;46042;49.444;6.862;2023-03-03T07:58:37;99112.41;;;3.02;76.48
60170;BME280;46042;49.444;6.862;2023-03-03T08:01:42;99119.69;;;3.52;74.65
60170;BME280;46042;49.444;6.862;2023-03-03T08:04:19;99114.00;;;4.24;73.18
60170;BME280;46042;49.444;6.862;2023-03-03T08:06:52;99111.88;;;4.88;70.25
60170;BME280;46042;49.444;6.862;2023-03-03T08:14:33;99119.75;;;5.60;62.88
60170;BME280;46042;49.444;6.862;2023-03-03T08:17:01;99113.78;;;5.56;62.17
60170;BME280;46042;49.444;6.862;2023-03-03T08:19:29;99117.41;;;5.52;63.98
60170;BME280;46042;49.444;6.862;2023-03-03T08:22:02;99124.09;;;5.37;62.67
60170;BME280;46042;49.444;6.862;2023-03-03T08:24:34;99112.59;;;5.87;65.14
60170;BME280;46042;49.444;6.862;2023-03-03T08:27:03;99116.34;;;6.26;62.86
60170;BME280;46042;49.444;6.862;2023-03-03T08:29:30;99109.59;;;7.24;62.02
60170;BME280;46042;49.444;6.862;2023-03-03T08:31:57;99111.97;;;7.49;58.32
60170;BME280;46042;49.444;6.862;2023-03-03T08:34:23;99118.16;;;8.04;58.46
60170;BME280;46042;49.444;6.862;2023-03-03T08:36:50;99113.13;;;8.36;57.85
60170;BME280;46042;49.444;6.862;2023-03-03T08:39:16;99114.97;;;8.71;55.19
60170;BME280;46042;49.444;6.862;2023-03-03T08:41:43;99104.63;;;8.86;54.74
60170;BME280;46042;49.444;6.862;2023-03-03T08:44:11;99110.41;;;8.92;51.78
60170;BME280;46042;49.444;6.862;2023-03-03T08:46:38;99109.16;;;9.00;52.22
60170;BME280;46042;49.444;6.862;2023-03-03T08:49:04;99115.44;;;9.31;51.92
60170;BME280;46042;49.444;6.862;2023-03-03T08:51:31;99114.78;;;9.43;51.62
60170;BME280;46042;49.444;6.862;2023-03-03T08:53:59;99113.09;;;9.42;51.38
60170;BME280;46042;49.444;6.862;2023-03-03T08:56:26;99109.03;;;9.68;50.71
60170;BME280;46042;49.444;6.862;2023-03-03T08:58:53;99111.63;;;10.01;50.22
60170;BME280;46042;49.444;6.862;2023-03-03T09:01:29;99109.63;;;10.06;49.94
60170;BME280;46042;49.444;6.862;2023-03-03T09:03:56;99121.53;;;10.44;52.02
60170;BME280;46042;49.444;6.862;2023-03-03T09:06:23;99115.25;;;10.46;48.86
60170;BME280;46042;49.444;6.862;2023-03-03T09:08:50;99110.22;;;10.58;48.05
60170;BME280;46042;49.444;6.862;2023-03-03T09:11:24;99116.59;;;10.37;52.34
60170;BME280;46042;49.444;6.862;2023-03-03T09:16:37;99118.25;;;10.71;48.21
60170;BME280;46042;49.444;6.862;2023-03-03T09:19:27;62137.28;;;-147.77;100.00
60170;BME280;46042;49.444;6.862;2023-03-03T09:22:01;62137.28;;;-147.77;100.00
60170;BME280;46042;49.444;6.862;2023-03-03T09:24:30;62137.28;;;-147.77;100.00
60170;BME280;46042;49.444;6.862;2023-03-03T09:26:57;62137.28;;;-147.77;100.00
60170;BME280;46042;49.444;6.862;2023-03-03T09:29:25;62137.28;;;-147.77;100.00
60170;BME280;46042;49.444;6.862;2023-03-03T09:37:23;62137.28;;;-147.77;100.00
60170;BME280;46042;49.444;6.862;2023-03-03T09:39:54;62137.28;;;-147.77;100.00
60170;BME280;46042;49.444;6.862;2023-03-03T09:42:24;62137.28;;;-147.77;100.00
60170;BME280;46042;49.444;6.862;2023-03-03T09:45:19;62137.28;;;-147.77;100.00
60170;BME280;46042;49.444;6.862;2023-03-03T10:21:10;62137.28;;;-147.77;100.00
60170;BME280;46042;49.444;6.862;2023-03-03T10:29:22;62137.28;;;-147.77;100.00
60170;BME280;46042;49.444;6.862;2023-03-03T10:57:10;62137.28;;;-147.77;100.00
60170;BME280;46042;49.444;6.862;2023-03-03T11:02:29;62137.28;;;-147.77;100.00
60170;BME280;46042;49.444;6.862;2023-03-03T11:07:46;62137.28;;;-147.77;100.00
60170;BME280;46042;49.444;6.862;2023-03-03T11:11:06;62137.28;;;-147.77;100.00
60170;BME280;46042;49.444;6.862;2023-03-03T11:13:43;62137.28;;;-147.77;100.00
60170;BME280;46042;49.444;6.862;2023-03-03T11:16:34;62137.28;;;-147.77;100.00
60170;BME280;46042;49.444;6.862;2023-03-03T11:19:25;62137.28;;;-147.77;100.00
60170;BME280;46042;49.444;6.862;2023-03-03T11:35:24;62137.28;;;-147.77;100.00
60170;BME280;46042;49.444;6.862;2023-03-03T11:38:04;62137.28;;;-147.77;100.00
60170;BME280;46042;49.444;6.862;2023-03-03T11:40:48;62137.28;;;-147.77;100.00
60170;BME280;46042;49.444;6.862;2023-03-03T11:43:37;62137.28;;;-147.77;100.00
60170;BME280;46042;49.444;6.862;2023-03-03T11:46:12;62137.28;;;-147.77;100.00
60170;BME280;46042;49.444;6.862;2023-03-03T11:51:31;62137.28;;;-147.77;100.00
60170;BME280;46042;49.444;6.862;2023-03-03T11:54:07;62137.28;;;-147.77;100.00
60170;BME280;46042;49.444;6.862;2023-03-03T11:56:42;62137.28;;;-147.77;100.00
60170;BME280;46042;49.444;6.862;2023-03-03T12:04:45;62137.28;;;-147.77;100.00
60170;BME280;46042;49.444;6.862;2023-03-03T12:10:23;62137.28;;;-147.77;100.00
60170;BME280;46042;49.444;6.862;2023-03-03T12:13:06;62137.28;;;-147.77;100.00
60170;BME280;46042;49.444;6.862;2023-03-03T12:29:17;62137.28;;;-147.77;100.00
60170;BME280;46042;49.444;6.862;2023-03-03T12:37:53;62137.28;;;-147.77;100.00
60170;BME280;46042;49.444;6.862;2023-03-03T12:40:25;62137.28;;;-147.77;100.00
60170;BME280;46042;49.444;6.862;2023-03-03T12:45:59;62137.28;;;-147.77;100.00
60170;BME280;46042;49.444;6.862;2023-03-03T12:48:40;62137.28;;;-147.77;100.00
60170;BME280;46042;49.444;6.862;2023-03-03T12:54:20;62137.28;;;-147.77;100.00
60170;BME280;46042;49.444;6.862;2023-03-03T12:56:58;62137.28;;;-147.77;100.00
60170;BME280;46042;49.444;6.862;2023-03-03T12:59:59;62137.28;;;-147.77;100.00
60170;BME280;46042;49.444;6.862;2023-03-03T13:08:52;62137.28;;;-147.77;100.00
60170;BME280;46042;49.444;6.862;2023-03-03T13:17:03;62137.28;;;-147.77;100.00
60170;BME280;46042;49.444;6.862;2023-03-03T13:19:42;62137.28;;;-147.77;100.00
60170;BME280;46042;49.444;6.862;2023-03-03T13:22:15;62137.28;;;-147.77;100.00
60170;BME280;46042;49.444;6.862;2023-03-03T13:24:53;62137.28;;;-147.77;100.00
60170;BME280;46042;49.444;6.862;2023-03-03T13:27:24;62137.28;;;-147.77;100.00
60170;BME280;46042;49.444;6.862;2023-03-03T13:30:13;62137.28;;;-147.77;100.00
60170;BME280;46042;49.444;6.862;2023-03-03T13:33:00;62137.28;;;-147.77;100.00
60170;BME280;46042;49.444;6.862;2023-03-03T13:35:55;62137.28;;;-147.77;100.00
60170;BME280;46042;49.444;6.862;2023-03-03T13:38:38;62137.28;;;-147.77;100.00
60170;BME280;46042;49.444;6.862;2023-03-03T13:41:45;62137.28;;;-147.77;100.00
60170;BME280;46042;49.444;6.862;2023-03-03T13:44:24;62137.28;;;-147.77;100.00
60170;BME280;46042;49.444;6.862;2023-03-03T13:55:42;62137.28;;;-147.77;100.00
60170;BME280;46042;49.444;6.862;2023-03-03T13:58:42;62137.28;;;-147.77;100.00
60170;BME280;46042;49.444;6.862;2023-03-03T14:06:56;62137.28;;;-147.77;100.00
60170;BME280;46042;49.444;6.862;2023-03-03T14:09:43;62137.28;;;-147.77;100.00
60170;BME280;46042;49.444;6.862;2023-03-03T14:12:25;62137.28;;;-147.77;100.00
60170;BME280;46042;49.444;6.862;2023-03-03T14:15:33;62137.28;;;-147.77;100.00
60170;BME280;46042;49.444;6.862;2023-03-03T14:20:44;62137.28;;;-147.77;100.00
60170;BME280;46042;49.444;6.862;2023-03-03T14:23:20;62137.28;;;-147.77;100.00
60170;BME280;46042;49.444;6.862;2023-03-03T14:25:55;62137.28;;;-147.77;100.00
60170;BME280;46042;49.444;6.862;2023-03-03T14:28:26;62137.28;;;-147.77;100.00
60170;BME280;46042;49.444;6.862;2023-03-03T14:30:55;62137.28;;;-147.77;100.00
60170;BME280;46042;49.444;6.862;2023-03-03T14:33:27;62137.28;;;-147.77;100.00
60170;BME280;46042;49.444;6.862;2023-03-03T14:38:46;62137.28;;;-147.77;100.00
60170;BME280;46042;49.444;6.862;2023-03-03T14:41:14;62137.28;;;-147.77;100.00
60170;BME280;46042;49.444;6.862;2023-03-03T14:43:55;62137.28;;;-147.77;100.00
60170;BME280;46042;49.444;6.862;2023-03-03T14:48:55;62137.28;;;-147.77;100.00
60170;BME280;46042;49.444;6.862;2023-03-03T14:54:18;62137.28;;;-147.77;100.00
60170;BME280;46042;49.444;6.862;2023-03-03T15:02:40;62137.28;;;-147.77;100.00
60170;BME280;46042;49.444;6.862;2023-03-03T15:05:24;62137.28;;;-147.77;100.00
60170;BME280;46042;49.444;6.862;2023-03-03T15:08:08;62137.28;;;-147.77;100.00
60170;BME280;46042;49.444;6.862;2023-03-03T15:10:43;62137.28;;;-147.77;100.00
60170;BME280;46042;49.444;6.862;2023-03-03T15:16:10;62137.28;;;-147.77;100.00
60170;BME280;46042;49.444;6.862;2023-03-03T15:21:28;62137.28;;;-147.77;100.00
60170;BME280;46042;49.444;6.862;2023-03-03T15:29:35;62137.28;;;-147.77;100.00
60170;BME280;46042;49.444;6.862;2023-03-03T15:41:07;62137.28;;;-147.77;100.00
60170;BME280;46042;49.444;6.862;2023-03-03T15:43:29;62137.28;;;-147.77;100.00
60170;BME280;46042;49.444;6.862;2023-03-03T15:57:33;62137.28;;;-147.77;100.00
60170;BME280;46042;49.444;6.862;2023-03-03T16:02:54;62137.28;;;-147.77;100.00
60170;BME280;46042;49.444;6.862;2023-03-03T16:08:13;62137.28;;;-147.77;100.00
60170;BME280;46042;49.444;6.862;2023-03-03T16:10:58;62137.28;;;-147.77;100.00
60170;BME280;46042;49.444;6.862;2023-03-03T16:13:49;99018.84;;;10.58;44.51
60170;BME280;46042;49.444;6.862;2023-03-03T16:16:45;99016.72;;;10.34;44.79
60170;BME280;46042;49.444;6.862;2023-03-03T16:25:12;62137.28;;;-147.77;100.00
60170;BME280;46042;49.444;6.862;2023-03-03T16:27:48;99022.63;;;9.93;47.38
60170;BME280;46042;49.444;6.862;2023-03-03T16:31:40;99021.69;;;9.78;47.51
60170;BME280;46042;49.444;6.862;2023-03-03T16:39:25;99033.75;;;9.50;50.16
60170;BME280;46042;49.444;6.862;2023-03-03T16:56:40;99059.44;;;8.61;53.90
60170;BME280;46042;49.444;6.862;2023-03-03T16:59:26;99063.34;;;8.35;55.02
60170;BME280;46042;49.444;6.862;2023-03-03T17:02:13;99064.19;;;8.18;56.22
60170;BME280;46042;49.444;6.862;2023-03-03T17:04:55;99078.91;;;8.03;56.85
60170;BME280;46042;49.444;6.862;2023-03-03T17:10:23;99085.97;;;7.64;58.04
60170;BME280;46042;49.444;6.862;2023-03-03T17:13:13;99083.06;;;7.51;59.12
60170;BME280;46042;49.444;6.862;2023-03-03T17:16:10;99095.19;;;7.34;59.16
60170;BME280;46042;49.444;6.862;2023-03-03T17:21:45;99094.38;;;7.13;60.60
60170;BME280;46042;49.444;6.862;2023-03-03T17:24:39;99103.56;;;7.03;60.86
60170;BME280;46042;49.444;6.862;2023-03-03T17:32:44;99112.81;;;6.70;61.87
60170;BME280;46042;49.444;6.862;2023-03-03T17:46:45;99138.16;;;6.04;64.82
60170;BME280;46042;49.444;6.862;2023-03-03T17:52:12;99144.09;;;5.84;65.26
60170;BME280;46042;49.444;6.862;2023-03-03T17:55:11;99152.03;;;5.82;65.35
60170;BME280;46042;49.444;6.862;2023-03-03T18:06:39;99162.19;;;5.43;67.24
60170;BME280;46042;49.444;6.862;2023-03-03T18:09:15;99169.19;;;5.42;66.44
60170;BME280;46042;49.444;6.862;2023-03-03T18:20:42;99179.72;;;5.15;67.95
60170;BME280;46042;49.444;6.862;2023-03-03T18:26:03;99185.56;;;4.96;67.82